American Falls, ID (83211)

12:44 AM MST on February 28, 2015 (GMT -0700)
HADS AMERICAN FALLS RESERVOIR NEAR AM ID US USBR | Change Station
CLOSE
Current Station
Personal Weather Station
Location: American Falls, ID
Elevation: 4298 ft
Nearby Weather Stations

Elev 4298 ft 42.78 °N, 112.88 °W | Updated 59 minutes ago

Partly Cloudy
Partly Cloudy
28 °F
Feels Like 28 °F
N
Wind Variable Wind from North
Gusts 0.0 mph

Today
High -- | Low -- °F
--% Chance of Precip.
Yesterday
High -- | Low -- °F
Precip. -- in
7:09 AM 6:19 PM
Waxing Gibbous, 75% visible
Pressure 29.82 in
Visibility 10.0 miles
Clouds Clear
Windchill 28 °F
Dew Point Not available.
Humidity Not available.
Rainfall 0.00 in
Snow Depth Not available.
UV 0 out of 12
Pollen 2.80 out of 12
Air Quality Not available.
Flu Activity Not available.
METAR KPIH 280653Z AUTO 05005KT 10SM CLR M06/M06 A2974 RMK AO2 SLP096 T10561061 400441056

More Conditions Fewer Conditions

Pressure 29.82 in
Visibility 10.0 miles
Clouds Clear
Windchill 28 °F
Dew Point Not available.
Humidity Not available.
Rainfall 0.00 in
Snow Depth Not available.
UV 0 out of 12
Pollen 2.80 out of 12
Air Quality Not available.
Flu Activity Not available.
METAR KPIH 280653Z AUTO 05005KT 10SM CLR M06/M06 A2974 RMK AO2 SLP096 T10561061 400441056

More Conditions Fewer Conditions

10-Day Weather Forecast

Almanac

Astronomy

Feb. 28, 2015 Rise Set
Actual Time
Civil Twilight
Nautical Twilight
Astronomical Twilight
Moon
Length of Visible Light
Length of Day
Tomorrow will be .
, % of the Moon is Illuminated

Today's Extremes

State Highs State Lows

Community

WunderPhotos

Upload Photos

1,800,984 photos uploaded!

WunderBlogs® & News

Nearby

Air Quality

  Air Quality AQ Index Pollutant
Not available.

Snow Depth

Station Depth Elevation

Earthquake Activity

City Distance Mag. Time & Date
Minimum magnitude displayed is 2.5.

Coastal Water Temperatures

Place Temperature

Nearby Weather Stations